sensor_id;sensor_type;location;lat;lon;timestamp;P1;durP1;ratioP1;P2;durP2;ratioP2
3036;SDS011;1528;52.550;13.408;2023-12-04T00:01:32;33.67;;;30.37;;
3036;SDS011;1528;52.550;13.408;2023-12-04T00:04:18;38.53;;;34.60;;
3036;SDS011;1528;52.550;13.408;2023-12-04T00:07:04;35.20;;;31.87;;
3036;SDS011;1528;52.550;13.408;2023-12-04T00:09:49;36.33;;;32.63;;
3036;SDS011;1528;52.550;13.408;2023-12-04T00:12:35;34.92;;;31.60;;
3036;SDS011;1528;52.550;13.408;2023-12-04T00:15:20;32.80;;;29.80;;
3036;SDS011;1528;52.550;13.408;2023-12-04T00:18:07;34.47;;;31.00;;
3036;SDS011;1528;52.550;13.408;2023-12-04T00:20:53;36.13;;;32.47;;
3036;SDS011;1528;52.550;13.408;2023-12-04T00:23:39;34.10;;;30.90;;
3036;SDS011;1528;52.550;13.408;2023-12-04T00:26:24;33.37;;;29.83;;
3036;SDS011;1528;52.550;13.408;2023-12-04T00:29:10;36.20;;;32.70;;
3036;SDS011;1528;52.550;13.408;2023-12-04T00:31:56;36.20;;;30.05;;
3036;SDS011;1528;52.550;13.408;2023-12-04T00:34:43;36.40;;;29.65;;
3036;SDS011;1528;52.550;13.408;2023-12-04T00:37:28;32.90;;;29.50;;
3036;SDS011;1528;52.550;13.408;2023-12-04T00:40:14;32.03;;;28.85;;
3036;SDS011;1528;52.550;13.408;2023-12-04T00:43:00;32.40;;;29.10;;
3036;SDS011;1528;52.550;13.408;2023-12-04T00:45:45;32.97;;;29.60;;
3036;SDS011;1528;52.550;13.408;2023-12-04T00:48:31;35.77;;;31.87;;
3036;SDS011;1528;52.550;13.408;2023-12-04T00:51:18;39.45;;;30.05;;
3036;SDS011;1528;52.550;13.408;2023-12-04T00:54:03;32.88;;;29.30;;
3036;SDS011;1528;52.550;13.408;2023-12-04T00:56:49;35.60;;;32.10;;
3036;SDS011;1528;52.550;13.408;2023-12-04T00:59:34;37.23;;;33.33;;
3036;SDS011;1528;52.550;13.408;2023-12-04T01:02:20;38.30;;;34.70;;
3036;SDS011;1528;52.550;13.408;2023-12-04T01:05:06;36.83;;;32.97;;
3036;SDS011;1528;52.550;13.408;2023-12-04T01:07:53;34.70;;;30.40;;
3036;SDS011;1528;52.550;13.408;2023-12-04T01:10:39;35.75;;;32.08;;
3036;SDS011;1528;52.550;13.408;2023-12-04T01:13:24;35.10;;;31.40;;
3036;SDS011;1528;52.550;13.408;2023-12-04T01:16:10;36.05;;;32.38;;
3036;SDS011;1528;52.550;13.408;2023-12-04T01:18:56;36.47;;;32.60;;
3036;SDS011;1528;52.550;13.408;2023-12-04T01:21:41;36.85;;;29.67;;
3036;SDS011;1528;52.550;13.408;2023-12-04T01:24:28;33.30;;;29.90;;
3036;SDS011;1528;52.550;13.408;2023-12-04T01:27:14;31.98;;;28.70;;
3036;SDS011;1528;52.550;13.408;2023-12-04T01:29:59;34.73;;;31.00;;
3036;SDS011;1528;52.550;13.408;2023-12-04T01:32:51;33.70;;;30.05;;
3036;SDS011;1528;52.550;13.408;2023-12-04T01:35:36;35.05;;;31.52;;
3036;SDS011;1528;52.550;13.408;2023-12-04T01:38:22;33.67;;;29.97;;
3036;SDS011;1528;52.550;13.408;2023-12-04T01:41:09;34.70;;;30.87;;
3036;SDS011;1528;52.550;13.408;2023-12-04T01:43:54;34.95;;;31.23;;
3036;SDS011;1528;52.550;13.408;2023-12-04T01:46:40;34.00;;;30.35;;
3036;SDS011;1528;52.550;13.408;2023-12-04T01:49:26;36.58;;;31.75;;
3036;SDS011;1528;52.550;13.408;2023-12-04T01:52:12;35.30;;;31.60;;
3036;SDS011;1528;52.550;13.408;2023-12-04T01:54:58;35.10;;;31.50;;
3036;SDS011;1528;52.550;13.408;2023-12-04T01:57:45;33.53;;;30.02;;
3036;SDS011;1528;52.550;13.408;2023-12-04T02:00:31;34.27;;;30.67;;
3036;SDS011;1528;52.550;13.408;2023-12-04T02:03:17;31.98;;;28.67;;
3036;SDS011;1528;52.550;13.408;2023-12-04T02:06:04;34.95;;;31.20;;
3036;SDS011;1528;52.550;13.408;2023-12-04T02:08:50;35.73;;;31.93;;
3036;SDS011;1528;52.550;13.408;2023-12-04T02:11:35;35.53;;;31.80;;
3036;SDS011;1528;52.550;13.408;2023-12-04T02:14:24;36.33;;;32.30;;
3036;SDS011;1528;52.550;13.408;2023-12-04T02:17:10;36.30;;;32.50;;
3036;SDS011;1528;52.550;13.408;2023-12-04T02:19:57;37.43;;;33.10;;
3036;SDS011;1528;52.550;13.408;2023-12-04T02:22:43;35.27;;;31.60;;
3036;SDS011;1528;52.550;13.408;2023-12-04T02:25:30;34.42;;;31.02;;
3036;SDS011;1528;52.550;13.408;2023-12-04T02:28:16;37.63;;;33.90;;
3036;SDS011;1528;52.550;13.408;2023-12-04T02:31:04;36.87;;;33.30;;
3036;SDS011;1528;52.550;13.408;2023-12-04T02:33:51;33.90;;;30.30;;
3036;SDS011;1528;52.550;13.408;2023-12-04T02:36:40;35.73;;;32.00;;
3036;SDS011;1528;52.550;13.408;2023-12-04T02:39:27;35.23;;;31.73;;
3036;SDS011;1528;52.550;13.408;2023-12-04T02:42:14;36.40;;;30.80;;
3036;SDS011;1528;52.550;13.408;2023-12-04T02:45:00;36.75;;;33.13;;
3036;SDS011;1528;52.550;13.408;2023-12-04T02:47:46;33.93;;;30.27;;
3036;SDS011;1528;52.550;13.408;2023-12-04T02:50:32;33.63;;;30.27;;
3036;SDS011;1528;52.550;13.408;2023-12-04T02:53:17;34.70;;;31.27;;
3036;SDS011;1528;52.550;13.408;2023-12-04T02:56:03;33.80;;;30.30;;
3036;SDS011;1528;52.550;13.408;2023-12-04T02:58:51;33.80;;;30.40;;
3036;SDS011;1528;52.550;13.408;2023-12-04T03:01:36;31.57;;;28.30;;
3036;SDS011;1528;52.550;13.408;2023-12-04T03:04:22;32.87;;;29.57;;
3036;SDS011;1528;52.550;13.408;2023-12-04T03:07:07;32.47;;;29.17;;
3036;SDS011;1528;52.550;13.408;2023-12-04T03:09:53;35.93;;;32.13;;
3036;SDS011;1528;52.550;13.408;2023-12-04T03:12:38;32.85;;;29.85;;
3036;SDS011;1528;52.550;13.408;2023-12-04T03:15:25;32.95;;;29.63;;
3036;SDS011;1528;52.550;13.408;2023-12-04T03:18:12;32.27;;;29.27;;
3036;SDS011;1528;52.550;13.408;2023-12-04T03:20:58;34.47;;;29.33;;
3036;SDS011;1528;52.550;13.408;2023-12-04T03:23:43;34.45;;;31.02;;
3036;SDS011;1528;52.550;13.408;2023-12-04T03:26:29;30.53;;;27.43;;
3036;SDS011;1528;52.550;13.408;2023-12-04T03:29:15;34.63;;;31.00;;
3036;SDS011;1528;52.550;13.408;2023-12-04T03:32:02;29.23;;;25.80;;
3036;SDS011;1528;52.550;13.408;2023-12-04T03:34:47;31.57;;;28.37;;
3036;SDS011;1528;52.550;13.408;2023-12-04T03:37:33;33.70;;;30.30;;
3036;SDS011;1528;52.550;13.408;2023-12-04T03:40:19;31.40;;;28.08;;
3036;SDS011;1528;52.550;13.408;2023-12-04T03:43:04;34.00;;;30.50;;
3036;SDS011;1528;52.550;13.408;2023-12-04T03:45:50;34.17;;;30.80;;
3036;SDS011;1528;52.550;13.408;2023-12-04T03:48:37;32.22;;;28.88;;
3036;SDS011;1528;52.550;13.408;2023-12-04T03:51:23;34.00;;;30.40;;
3036;SDS011;1528;52.550;13.408;2023-12-04T03:54:08;32.33;;;29.02;;
3036;SDS011;1528;52.550;13.408;2023-12-04T03:56:55;32.38;;;29.27;;
3036;SDS011;1528;52.550;13.408;2023-12-04T03:59:40;31.70;;;28.40;;
3036;SDS011;1528;52.550;13.408;2023-12-04T04:02:26;33.42;;;30.02;;
3036;SDS011;1528;52.550;13.408;2023-12-04T04:05:14;32.35;;;28.90;;
3036;SDS011;1528;52.550;13.408;2023-12-04T04:07:59;33.92;;;30.25;;
3036;SDS011;1528;52.550;13.408;2023-12-04T04:10:45;36.38;;;32.97;;
3036;SDS011;1528;52.550;13.408;2023-12-04T04:13:31;33.45;;;29.63;;
3036;SDS011;1528;52.550;13.408;2023-12-04T04:16:17;32.37;;;29.10;;
3036;SDS011;1528;52.550;13.408;2023-12-04T04:19:02;31.35;;;28.17;;
3036;SDS011;1528;52.550;13.408;2023-12-04T04:21:49;32.25;;;28.95;;
3036;SDS011;1528;52.550;13.408;2023-12-04T04:24:35;29.77;;;26.50;;
3036;SDS011;1528;52.550;13.408;2023-12-04T04:27:20;33.15;;;30.05;;
3036;SDS011;1528;52.550;13.408;2023-12-04T04:30:06;29.58;;;26.48;;
3036;SDS011;1528;52.550;13.408;2023-12-04T04:32:52;28.15;;;25.25;;
3036;SDS011;1528;52.550;13.408;2023-12-04T04:35:38;29.73;;;26.48;;
3036;SDS011;1528;52.550;13.408;2023-12-04T04:38:25;28.33;;;25.52;;
3036;SDS011;1528;52.550;13.408;2023-12-04T04:41:12;28.80;;;26.00;;
3036;SDS011;1528;52.550;13.408;2023-12-04T04:43:58;27.95;;;25.05;;
3036;SDS011;1528;52.550;13.408;2023-12-04T04:46:44;31.33;;;28.23;;
3036;SDS011;1528;52.550;13.408;2023-12-04T04:49:30;30.98;;;28.02;;
3036;SDS011;1528;52.550;13.408;2023-12-04T04:52:15;30.50;;;27.25;;
3036;SDS011;1528;52.550;13.408;2023-12-04T04:55:02;29.00;;;26.13;;
3036;SDS011;1528;52.550;13.408;2023-12-04T04:57:50;32.10;;;28.70;;
3036;SDS011;1528;52.550;13.408;2023-12-04T05:00:35;32.47;;;29.33;;
3036;SDS011;1528;52.550;13.408;2023-12-04T05:03:21;28.90;;;25.88;;
3036;SDS011;1528;52.550;13.408;2023-12-04T05:06:07;30.83;;;27.98;;
3036;SDS011;1528;52.550;13.408;2023-12-04T05:08:54;32.78;;;29.48;;
3036;SDS011;1528;52.550;13.408;2023-12-04T05:11:40;28.05;;;25.45;;
3036;SDS011;1528;52.550;13.408;2023-12-04T05:14:26;27.38;;;24.55;;
3036;SDS011;1528;52.550;13.408;2023-12-04T05:17:12;30.67;;;27.77;;
3036;SDS011;1528;52.550;13.408;2023-12-04T05:19:57;28.90;;;26.03;;
3036;SDS011;1528;52.550;13.408;2023-12-04T05:22:43;30.17;;;26.60;;
3036;SDS011;1528;52.550;13.408;2023-12-04T05:25:28;30.17;;;26.77;;
3036;SDS011;1528;52.550;13.408;2023-12-04T05:28:15;27.98;;;25.20;;
3036;SDS011;1528;52.550;13.408;2023-12-04T05:31:01;26.98;;;24.35;;
3036;SDS011;1528;52.550;13.408;2023-12-04T05:33:47;28.80;;;26.17;;
3036;SDS011;1528;52.550;13.408;2023-12-04T05:36:33;30.42;;;27.33;;
3036;SDS011;1528;52.550;13.408;2023-12-04T05:39:19;29.38;;;26.25;;
3036;SDS011;1528;52.550;13.408;2023-12-04T05:42:04;32.15;;;29.13;;
3036;SDS011;1528;52.550;13.408;2023-12-04T05:44:51;29.08;;;26.13;;
3036;SDS011;1528;52.550;13.408;2023-12-04T05:47:38;27.95;;;25.05;;
3036;SDS011;1528;52.550;13.408;2023-12-04T05:50:24;33.17;;;30.08;;
3036;SDS011;1528;52.550;13.408;2023-12-04T05:53:10;28.33;;;25.42;;
3036;SDS011;1528;52.550;13.408;2023-12-04T05:55:56;29.63;;;26.67;;
3036;SDS011;1528;52.550;13.408;2023-12-04T05:58:42;29.80;;;26.95;;
3036;SDS011;1528;52.550;13.408;2023-12-04T06:01:29;27.15;;;24.33;;
3036;SDS011;1528;52.550;13.408;2023-12-04T06:04:15;29.58;;;26.65;;
3036;SDS011;1528;52.550;13.408;2023-12-04T06:07:00;32.00;;;29.15;;
3036;SDS011;1528;52.550;13.408;2023-12-04T06:09:46;31.58;;;28.33;;
3036;SDS011;1528;52.550;13.408;2023-12-04T06:12:32;31.60;;;28.45;;
3036;SDS011;1528;52.550;13.408;2023-12-04T06:15:17;31.63;;;28.40;;
3036;SDS011;1528;52.550;13.408;2023-12-04T06:18:04;31.83;;;28.58;;
3036;SDS011;1528;52.550;13.408;2023-12-04T06:20:50;30.20;;;27.00;;
3036;SDS011;1528;52.550;13.408;2023-12-04T06:23:36;28.80;;;25.80;;
3036;SDS011;1528;52.550;13.408;2023-12-04T06:26:22;29.90;;;27.08;;
3036;SDS011;1528;52.550;13.408;2023-12-04T06:29:08;30.00;;;27.13;;
3036;SDS011;1528;52.550;13.408;2023-12-04T06:31:54;31.48;;;28.58;;
3036;SDS011;1528;52.550;13.408;2023-12-04T06:34:42;33.72;;;30.42;;
3036;SDS011;1528;52.550;13.408;2023-12-04T06:37:28;30.27;;;27.10;;
3036;SDS011;1528;52.550;13.408;2023-12-04T06:40:14;31.25;;;28.05;;
3036;SDS011;1528;52.550;13.408;2023-12-04T06:43:01;29.77;;;26.98;;
3036;SDS011;1528;52.550;13.408;2023-12-04T06:45:47;32.53;;;29.08;;
3036;SDS011;1528;52.550;13.408;2023-12-04T06:48:32;29.47;;;26.73;;
3036;SDS011;1528;52.550;13.408;2023-12-04T06:51:20;30.77;;;27.40;;
3036;SDS011;1528;52.550;13.408;2023-12-04T06:54:05;30.40;;;27.52;;
3036;SDS011;1528;52.550;13.408;2023-12-04T06:56:51;30.88;;;28.13;;
3036;SDS011;1528;52.550;13.408;2023-12-04T06:59:37;30.73;;;27.92;;
3036;SDS011;1528;52.550;13.408;2023-12-04T07:02:22;31.20;;;28.33;;
3036;SDS011;1528;52.550;13.408;2023-12-04T07:05:08;28.90;;;26.10;;
3036;SDS011;1528;52.550;13.408;2023-12-04T07:07:55;29.25;;;26.65;;
3036;SDS011;1528;52.550;13.408;2023-12-04T07:10:41;30.00;;;27.20;;
3036;SDS011;1528;52.550;13.408;2023-12-04T07:13:26;35.42;;;32.42;;
3036;SDS011;1528;52.550;13.408;2023-12-04T07:16:12;30.65;;;27.75;;
3036;SDS011;1528;52.550;13.408;2023-12-04T07:18:57;32.53;;;29.58;;
3036;SDS011;1528;52.550;13.408;2023-12-04T07:21:43;29.17;;;26.60;;
3036;SDS011;1528;52.550;13.408;2023-12-04T07:24:30;30.58;;;27.60;;
3036;SDS011;1528;52.550;13.408;2023-12-04T07:27:15;33.30;;;29.93;;
3036;SDS011;1528;52.550;13.408;2023-12-04T07:30:01;32.10;;;28.75;;
3036;SDS011;1528;52.550;13.408;2023-12-04T07:32:47;30.90;;;27.17;;
3036;SDS011;1528;52.550;13.408;2023-12-04T07:35:33;31.50;;;28.43;;
3036;SDS011;1528;52.550;13.408;2023-12-04T07:38:18;29.23;;;26.50;;
3036;SDS011;1528;52.550;13.408;2023-12-04T07:41:06;31.83;;;28.53;;
3036;SDS011;1528;52.550;13.408;2023-12-04T07:43:51;31.50;;;28.50;;
3036;SDS011;1528;52.550;13.408;2023-12-04T07:46:38;28.63;;;25.95;;
3036;SDS011;1528;52.550;13.408;2023-12-04T07:49:23;29.97;;;27.20;;
3036;SDS011;1528;52.550;13.408;2023-12-04T07:52:09;28.13;;;25.38;;
3036;SDS011;1528;52.550;13.408;2023-12-04T07:54:56;28.35;;;25.42;;
3036;SDS011;1528;52.550;13.408;2023-12-04T07:57:43;28.73;;;26.00;;
3036;SDS011;1528;52.550;13.408;2023-12-04T08:00:28;27.48;;;23.65;;
3036;SDS011;1528;52.550;13.408;2023-12-04T08:03:14;29.67;;;26.90;;
3036;SDS011;1528;52.550;13.408;2023-12-04T08:05:59;27.13;;;24.63;;
3036;SDS011;1528;52.550;13.408;2023-12-04T08:08:45;31.43;;;28.20;;
3036;SDS011;1528;52.550;13.408;2023-12-04T08:11:31;25.65;;;23.23;;
3036;SDS011;1528;52.550;13.408;2023-12-04T08:14:18;26.37;;;23.77;;
3036;SDS011;1528;52.550;13.408;2023-12-04T08:17:03;25.90;;;23.40;;
3036;SDS011;1528;52.550;13.408;2023-12-04T08:19:49;25.35;;;22.88;;
3036;SDS011;1528;52.550;13.408;2023-12-04T08:22:34;27.33;;;24.83;;
3036;SDS011;1528;52.550;13.408;2023-12-04T08:25:20;30.17;;;27.17;;
3036;SDS011;1528;52.550;13.408;2023-12-04T08:28:06;27.70;;;25.33;;
3036;SDS011;1528;52.550;13.408;2023-12-04T08:30:54;28.13;;;25.37;;
3036;SDS011;1528;52.550;13.408;2023-12-04T08:33:39;31.17;;;28.65;;
3036;SDS011;1528;52.550;13.408;2023-12-04T08:36:25;29.40;;;26.87;;
3036;SDS011;1528;52.550;13.408;2023-12-04T08:39:10;30.20;;;27.37;;
3036;SDS011;1528;52.550;13.408;2023-12-04T08:41:56;28.83;;;26.15;;
3036;SDS011;1528;52.550;13.408;2023-12-04T08:44:41;27.53;;;25.07;;
3036;SDS011;1528;52.550;13.408;2023-12-04T08:47:30;26.13;;;23.53;;
3036;SDS011;1528;52.550;13.408;2023-12-04T08:50:15;30.03;;;27.30;;
3036;SDS011;1528;52.550;13.408;2023-12-04T08:53:01;27.53;;;25.10;;
3036;SDS011;1528;52.550;13.408;2023-12-04T08:55:46;26.53;;;24.20;;
3036;SDS011;1528;52.550;13.408;2023-12-04T08:58:32;26.93;;;24.23;;
3036;SDS011;1528;52.550;13.408;2023-12-04T09:01:17;26.13;;;23.93;;
3036;SDS011;1528;52.550;13.408;2023-12-04T09:04:05;27.90;;;25.33;;
3036;SDS011;1528;52.550;13.408;2023-12-04T09:06:52;28.70;;;26.20;;
3036;SDS011;1528;52.550;13.408;2023-12-04T09:09:37;30.37;;;27.37;;
3036;SDS011;1528;52.550;13.408;2023-12-04T09:12:23;27.60;;;24.80;;
3036;SDS011;1528;52.550;13.408;2023-12-04T09:15:10;30.03;;;27.33;;
3036;SDS011;1528;52.550;13.408;2023-12-04T09:17:55;28.30;;;25.83;;
3036;SDS011;1528;52.550;13.408;2023-12-04T09:20:42;26.03;;;23.70;;
3036;SDS011;1528;52.550;13.408;2023-12-04T09:23:28;27.80;;;25.50;;
3036;SDS011;1528;52.550;13.408;2023-12-04T09:26:14;26.93;;;24.63;;
3036;SDS011;1528;52.550;13.408;2023-12-04T09:28:59;26.40;;;24.10;;
3036;SDS011;1528;52.550;13.408;2023-12-04T09:31:45;28.53;;;25.97;;
3036;SDS011;1528;52.550;13.408;2023-12-04T09:34:31;27.27;;;24.67;;
3036;SDS011;1528;52.550;13.408;2023-12-04T09:37:18;27.03;;;24.43;;
3036;SDS011;1528;52.550;13.408;2023-12-04T09:40:04;27.97;;;25.50;;
3036;SDS011;1528;52.550;13.408;2023-12-04T09:42:51;28.33;;;25.83;;
3036;SDS011;1528;52.550;13.408;2023-12-04T09:45:37;26.57;;;24.27;;
3036;SDS011;1528;52.550;13.408;2023-12-04T09:48:24;24.37;;;22.13;;
3036;SDS011;1528;52.550;13.408;2023-12-04T09:51:11;26.87;;;24.37;;
3036;SDS011;1528;52.550;13.408;2023-12-04T09:54:02;25.10;;;22.90;;
3036;SDS011;1528;52.550;13.408;2023-12-04T09:56:49;24.07;;;21.57;;
3036;SDS011;1528;52.550;13.408;2023-12-04T09:59:34;26.23;;;23.37;;
3036;SDS011;1528;52.550;13.408;2023-12-04T10:02:20;25.20;;;23.03;;
3036;SDS011;1528;52.550;13.408;2023-12-04T10:05:06;25.20;;;22.93;;
3036;SDS011;1528;52.550;13.408;2023-12-04T10:07:52;22.30;;;20.47;;
3036;SDS011;1528;52.550;13.408;2023-12-04T10:10:39;25.23;;;22.97;;
3036;SDS011;1528;52.550;13.408;2023-12-04T10:13:24;23.00;;;21.00;;
3036;SDS011;1528;52.550;13.408;2023-12-04T10:16:10;24.60;;;22.40;;
3036;SDS011;1528;52.550;13.408;2023-12-04T10:18:56;25.37;;;23.07;;
3036;SDS011;1528;52.550;13.408;2023-12-04T10:21:42;23.60;;;21.50;;
3036;SDS011;1528;52.550;13.408;2023-12-04T10:24:28;23.23;;;21.20;;
3036;SDS011;1528;52.550;13.408;2023-12-04T10:27:20;23.70;;;21.90;;
3036;SDS011;1528;52.550;13.408;2023-12-04T10:30:21;24.23;;;22.27;;
3036;SDS011;1528;52.550;13.408;2023-12-04T10:33:08;25.77;;;23.53;;
3036;SDS011;1528;52.550;13.408;2023-12-04T10:35:54;22.67;;;20.83;;
3036;SDS011;1528;52.550;13.408;2023-12-04T10:38:40;25.33;;;23.23;;
3036;SDS011;1528;52.550;13.408;2023-12-04T10:41:25;24.60;;;22.70;;
3036;SDS011;1528;52.550;13.408;2023-12-04T10:44:16;24.67;;;22.40;;
3036;SDS011;1528;52.550;13.408;2023-12-04T10:47:02;24.17;;;21.90;;
3036;SDS011;1528;52.550;13.408;2023-12-04T10:49:50;25.00;;;22.63;;
3036;SDS011;1528;52.550;13.408;2023-12-04T10:52:36;22.63;;;20.63;;
3036;SDS011;1528;52.550;13.408;2023-12-04T10:55:24;21.33;;;19.40;;
3036;SDS011;1528;52.550;13.408;2023-12-04T10:58:10;21.73;;;19.93;;
3036;SDS011;1528;52.550;13.408;2023-12-04T11:00:59;23.20;;;20.90;;
3036;SDS011;1528;52.550;13.408;2023-12-04T11:03:47;22.13;;;20.37;;
3036;SDS011;1528;52.550;13.408;2023-12-04T11:06:35;23.83;;;21.30;;
3036;SDS011;1528;52.550;13.408;2023-12-04T11:09:24;23.73;;;21.83;;
3036;SDS011;1528;52.550;13.408;2023-12-04T11:12:11;22.30;;;20.50;;
3036;SDS011;1528;52.550;13.408;2023-12-04T11:15:03;23.43;;;21.33;;
3036;SDS011;1528;52.550;13.408;2023-12-04T11:17:56;21.33;;;19.73;;
3036;SDS011;1528;52.550;13.408;2023-12-04T11:20:46;23.43;;;21.33;;
3036;SDS011;1528;52.550;13.408;2023-12-04T11:23:36;23.13;;;20.90;;
3036;SDS011;1528;52.550;13.408;2023-12-04T11:26:22;22.50;;;20.60;;
3036;SDS011;1528;52.550;13.408;2023-12-04T11:29:08;23.33;;;21.53;;
3036;SDS011;1528;52.550;13.408;2023-12-04T11:31:56;20.60;;;18.90;;
3036;SDS011;1528;52.550;13.408;2023-12-04T11:34:51;21.73;;;20.03;;
3036;SDS011;1528;52.550;13.408;2023-12-04T11:37:39;22.77;;;20.97;;
3036;SDS011;1528;52.550;13.408;2023-12-04T11:40:27;21.47;;;19.70;;
3036;SDS011;1528;52.550;13.408;2023-12-04T11:43:23;24.37;;;22.13;;
3036;SDS011;1528;52.550;13.408;2023-12-04T11:46:09;23.97;;;21.97;;
3036;SDS011;1528;52.550;13.408;2023-12-04T11:48:56;24.70;;;22.80;;
3036;SDS011;1528;52.550;13.408;2023-12-04T11:52:04;21.83;;;20.03;;
3036;SDS011;1528;52.550;13.408;2023-12-04T11:54:57;23.77;;;21.50;;
3036;SDS011;1528;52.550;13.408;2023-12-04T11:57:44;21.70;;;19.73;;
3036;SDS011;1528;52.550;13.408;2023-12-04T12:00:30;21.03;;;19.03;;
3036;SDS011;1528;52.550;13.408;2023-12-04T12:03:19;23.33;;;21.33;;
3036;SDS011;1528;52.550;13.408;2023-12-04T12:06:06;22.73;;;21.03;;
3036;SDS011;1528;52.550;13.408;2023-12-04T12:08:53;22.07;;;20.13;;
3036;SDS011;1528;52.550;13.408;2023-12-04T12:11:41;21.40;;;19.70;;
3036;SDS011;1528;52.550;13.408;2023-12-04T12:14:27;21.23;;;19.30;;
3036;SDS011;1528;52.550;13.408;2023-12-04T12:17:13;22.87;;;20.97;;
3036;SDS011;1528;52.550;13.408;2023-12-04T12:19:59;24.83;;;22.77;;
3036;SDS011;1528;52.550;13.408;2023-12-04T12:22:44;23.57;;;21.47;;
3036;SDS011;1528;52.550;13.408;2023-12-04T12:25:31;24.30;;;22.23;;
3036;SDS011;1528;52.550;13.408;2023-12-04T12:28:18;24.57;;;22.30;;
3036;SDS011;1528;52.550;13.408;2023-12-04T12:31:04;25.10;;;23.20;;
3036;SDS011;1528;52.550;13.408;2023-12-04T12:33:50;27.93;;;25.40;;
3036;SDS011;1528;52.550;13.408;2023-12-04T12:36:36;28.87;;;26.37;;
3036;SDS011;1528;52.550;13.408;2023-12-04T12:39:22;26.00;;;23.73;;
3036;SDS011;1528;52.550;13.408;2023-12-04T12:42:09;26.90;;;24.43;;
3036;SDS011;1528;52.550;13.408;2023-12-04T12:44:55;24.57;;;22.50;;
3036;SDS011;1528;52.550;13.408;2023-12-04T12:47:44;23.40;;;21.50;;
3036;SDS011;1528;52.550;13.408;2023-12-04T12:50:30;21.93;;;20.13;;
3036;SDS011;1528;52.550;13.408;2023-12-04T12:53:17;23.43;;;21.53;;
3036;SDS011;1528;52.550;13.408;2023-12-04T12:56:03;22.20;;;20.00;;
3036;SDS011;1528;52.550;13.408;2023-12-04T12:58:51;23.60;;;21.20;;
3036;SDS011;1528;52.550;13.408;2023-12-04T13:01:38;23.57;;;21.67;;
3036;SDS011;1528;52.550;13.408;2023-12-04T13:04:23;21.20;;;19.57;;
3036;SDS011;1528;52.550;13.408;2023-12-04T13:07:09;20.60;;;18.80;;
3036;SDS011;1528;52.550;13.408;2023-12-04T13:09:55;21.57;;;19.53;;
3036;SDS011;1528;52.550;13.408;2023-12-04T13:12:41;21.30;;;19.63;;
3036;SDS011;1528;52.550;13.408;2023-12-04T13:15:28;20.40;;;18.57;;
3036;SDS011;1528;52.550;13.408;2023-12-04T13:18:13;21.77;;;20.27;;
3036;SDS011;1528;52.550;13.408;2023-12-04T13:20:59;20.27;;;18.60;;
3036;SDS011;1528;52.550;13.408;2023-12-04T13:23:44;21.50;;;19.83;;
3036;SDS011;1528;52.550;13.408;2023-12-04T13:26:30;21.97;;;20.33;;
3036;SDS011;1528;52.550;13.408;2023-12-04T13:29:16;25.97;;;23.77;;
3036;SDS011;1528;52.550;13.408;2023-12-04T13:32:04;22.03;;;20.33;;
3036;SDS011;1528;52.550;13.408;2023-12-04T13:34:51;23.33;;;21.40;;
3036;SDS011;1528;52.550;13.408;2023-12-04T13:37:38;23.13;;;21.33;;
3036;SDS011;1528;52.550;13.408;2023-12-04T13:40:24;22.53;;;20.67;;
3036;SDS011;1528;52.550;13.408;2023-12-04T13:43:12;21.77;;;19.87;;
3036;SDS011;1528;52.550;13.408;2023-12-04T13:46:15;23.20;;;21.23;;
3036;SDS011;1528;52.550;13.408;2023-12-04T13:49:02;21.90;;;20.07;;
3036;SDS011;1528;52.550;13.408;2023-12-04T13:51:47;22.53;;;20.47;;
3036;SDS011;1528;52.550;13.408;2023-12-04T13:54:33;22.13;;;20.20;;
3036;SDS011;1528;52.550;13.408;2023-12-04T13:57:28;19.93;;;18.20;;
3036;SDS011;1528;52.550;13.408;2023-12-04T14:00:17;22.23;;;20.47;;
3036;SDS011;1528;52.550;13.408;2023-12-04T14:03:02;22.60;;;20.70;;
3036;SDS011;1528;52.550;13.408;2023-12-04T14:05:50;21.60;;;19.90;;
3036;SDS011;1528;52.550;13.408;2023-12-04T14:08:35;23.50;;;20.80;;
3036;SDS011;1528;52.550;13.408;2023-12-04T14:11:21;21.37;;;19.53;;
3036;SDS011;1528;52.550;13.408;2023-12-04T14:14:06;20.83;;;19.23;;
3036;SDS011;1528;52.550;13.408;2023-12-04T14:16:52;22.67;;;20.80;;
3036;SDS011;1528;52.550;13.408;2023-12-04T14:19:38;21.20;;;19.43;;
3036;SDS011;1528;52.550;13.408;2023-12-04T14:22:25;23.57;;;21.60;;
3036;SDS011;1528;52.550;13.408;2023-12-04T14:25:11;21.43;;;19.73;;
3036;SDS011;1528;52.550;13.408;2023-12-04T14:27:56;22.17;;;20.33;;
3036;SDS011;1528;52.550;13.408;2023-12-04T14:30:42;21.53;;;19.80;;
3036;SDS011;1528;52.550;13.408;2023-12-04T14:33:28;25.93;;;23.90;;
3036;SDS011;1528;52.550;13.408;2023-12-04T14:36:13;25.87;;;23.47;;
3036;SDS011;1528;52.550;13.408;2023-12-04T14:39:01;23.47;;;21.37;;
3036;SDS011;1528;52.550;13.408;2023-12-04T14:41:48;22.77;;;20.37;;
3036;SDS011;1528;52.550;13.408;2023-12-04T14:44:34;24.73;;;22.70;;
3036;SDS011;1528;52.550;13.408;2023-12-04T14:47:20;26.40;;;24.40;;
3036;SDS011;1528;52.550;13.408;2023-12-04T14:50:06;25.27;;;23.27;;
3036;SDS011;1528;52.550;13.408;2023-12-04T14:52:53;23.73;;;21.47;;
3036;SDS011;1528;52.550;13.408;2023-12-04T14:55:42;22.07;;;20.27;;
3036;SDS011;1528;52.550;13.408;2023-12-04T14:58:45;27.80;;;25.47;;
3036;SDS011;1528;52.550;13.408;2023-12-04T15:02:03;25.57;;;23.13;;
3036;SDS011;1528;52.550;13.408;2023-12-04T15:05:06;25.27;;;23.07;;
3036;SDS011;1528;52.550;13.408;2023-12-04T15:08:06;25.00;;;23.00;;
3036;SDS011;1528;52.550;13.408;2023-12-04T15:11:22;23.83;;;21.83;;
3036;SDS011;1528;52.550;13.408;2023-12-04T15:14:25;22.63;;;20.73;;
3036;SDS011;1528;52.550;13.408;2023-12-04T15:17:20;23.20;;;21.40;;
3036;SDS011;1528;52.550;13.408;2023-12-04T15:20:14;24.03;;;22.13;;
3036;SDS011;1528;52.550;13.408;2023-12-04T15:23:16;24.20;;;22.07;;
3036;SDS011;1528;52.550;13.408;2023-12-04T15:26:02;24.53;;;22.20;;
3036;SDS011;1528;52.550;13.408;2023-12-04T15:28:50;24.03;;;22.13;;
3036;SDS011;1528;52.550;13.408;2023-12-04T15:31:34;22.70;;;20.70;;
3036;SDS011;1528;52.550;13.408;2023-12-04T15:34:20;24.90;;;22.83;;
3036;SDS011;1528;52.550;13.408;2023-12-04T15:37:05;25.60;;;23.60;;
3036;SDS011;1528;52.550;13.408;2023-12-04T15:39:52;22.47;;;20.20;;
3036;SDS011;1528;52.550;13.408;2023-12-04T15:42:37;26.80;;;24.70;;
3036;SDS011;1528;52.550;13.408;2023-12-04T15:45:24;25.97;;;23.97;;
3036;SDS011;1528;52.550;13.408;2023-12-04T15:48:09;24.40;;;22.40;;
3036;SDS011;1528;52.550;13.408;2023-12-04T15:50:55;24.03;;;22.13;;
3036;SDS011;1528;52.550;13.408;2023-12-04T15:53:41;23.00;;;21.00;;
3036;SDS011;1528;52.550;13.408;2023-12-04T15:56:25;27.43;;;23.50;;
3036;SDS011;1528;52.550;13.408;2023-12-04T15:59:11;25.37;;;23.10;;
3036;SDS011;1528;52.550;13.408;2023-12-04T16:01:57;21.70;;;20.00;;
3036;SDS011;1528;52.550;13.408;2023-12-04T16:04:43;24.23;;;22.03;;
3036;SDS011;1528;52.550;13.408;2023-12-04T16:07:28;24.53;;;22.43;;
3036;SDS011;1528;52.550;13.408;2023-12-04T16:10:14;24.27;;;22.17;;
3036;SDS011;1528;52.550;13.408;2023-12-04T16:13:00;25.90;;;23.80;;
3036;SDS011;1528;52.550;13.408;2023-12-04T16:15:46;27.60;;;25.50;;
3036;SDS011;1528;52.550;13.408;2023-12-04T16:18:33;26.47;;;24.07;;
3036;SDS011;1528;52.550;13.408;2023-12-04T16:21:19;27.63;;;25.33;;
3036;SDS011;1528;52.550;13.408;2023-12-04T16:24:06;23.60;;;21.53;;
3036;SDS011;1528;52.550;13.408;2023-12-04T16:26:54;24.33;;;22.17;;
3036;SDS011;1528;52.550;13.408;2023-12-04T16:29:40;24.58;;;22.58;;